sensor_id;sensor_type;location;lat;lon;timestamp;temperature;humidity
72650;SHT31;61467;50.674;4.618;2024-02-16T00:00:36;14.34;65.19
72650;SHT31;61467;50.674;4.618;2024-02-16T00:03:03;14.14;65.60
72650;SHT31;61467;50.674;4.618;2024-02-16T00:05:30;14.23;65.22
72650;SHT31;61467;50.674;4.618;2024-02-16T00:07:57;14.20;65.47
72650;SHT31;61467;50.674;4.618;2024-02-16T00:10:25;14.22;65.32
72650;SHT31;61467;50.674;4.618;2024-02-16T00:12:52;14.13;65.32
72650;SHT31;61467;50.674;4.618;2024-02-16T00:15:20;14.13;65.69
72650;SHT31;61467;50.674;4.618;2024-02-16T00:17:47;14.12;65.64
72650;SHT31;61467;50.674;4.618;2024-02-16T00:20:14;14.17;65.48
72650;SHT31;61467;50.674;4.618;2024-02-16T00:22:41;14.16;65.69
72650;SHT31;61467;50.674;4.618;2024-02-16T00:25:08;14.17;65.82
72650;SHT31;61467;50.674;4.618;2024-02-16T00:27:35;14.12;65.83
72650;SHT31;61467;50.674;4.618;2024-02-16T00:30:05;14.05;65.94
72650;SHT31;61467;50.674;4.618;2024-02-16T00:32:33;14.05;65.90
72650;SHT31;61467;50.674;4.618;2024-02-16T00:35:00;14.06;65.89
72650;SHT31;61467;50.674;4.618;2024-02-16T00:37:26;14.05;66.19
72650;SHT31;61467;50.674;4.618;2024-02-16T00:39:53;14.10;66.17
72650;SHT31;61467;50.674;4.618;2024-02-16T00:42:21;14.02;66.23
72650;SHT31;61467;50.674;4.618;2024-02-16T00:44:48;14.05;66.41
72650;SHT31;61467;50.674;4.618;2024-02-16T00:47:15;13.95;66.70
72650;SHT31;61467;50.674;4.618;2024-02-16T00:49:44;14.02;66.74
72650;SHT31;61467;50.674;4.618;2024-02-16T00:52:11;14.16;66.35
72650;SHT31;61467;50.674;4.618;2024-02-16T00:54:40;14.08;66.42
72650;SHT31;61467;50.674;4.618;2024-02-16T00:57:06;14.09;66.36
72650;SHT31;61467;50.674;4.618;2024-02-16T00:59:33;14.05;66.52
72650;SHT31;61467;50.674;4.618;2024-02-16T01:02:01;14.03;66.59
72650;SHT31;61467;50.674;4.618;2024-02-16T01:04:28;14.13;66.35
72650;SHT31;61467;50.674;4.618;2024-02-16T01:06:56;14.06;66.57
72650;SHT31;61467;50.674;4.618;2024-02-16T01:09:23;13.99;66.97
72650;SHT31;61467;50.674;4.618;2024-02-16T01:11:52;14.03;66.85
72650;SHT31;61467;50.674;4.618;2024-02-16T01:14:19;13.92;67.51
72650;SHT31;61467;50.674;4.618;2024-02-16T01:16:46;13.96;67.16
72650;SHT31;61467;50.674;4.618;2024-02-16T01:19:13;13.87;67.43
72650;SHT31;61467;50.674;4.618;2024-02-16T01:21:40;13.92;67.32
72650;SHT31;61467;50.674;4.618;2024-02-16T01:24:08;13.90;67.64
72650;SHT31;61467;50.674;4.618;2024-02-16T01:26:35;13.96;67.61
72650;SHT31;61467;50.674;4.618;2024-02-16T01:29:02;13.99;67.48
72650;SHT31;61467;50.674;4.618;2024-02-16T01:31:28;13.90;67.70
72650;SHT31;61467;50.674;4.618;2024-02-16T01:33:55;13.78;67.93
72650;SHT31;61467;50.674;4.618;2024-02-16T01:36:22;13.76;68.05
72650;SHT31;61467;50.674;4.618;2024-02-16T01:38:49;13.76;68.30
72650;SHT31;61467;50.674;4.618;2024-02-16T01:41:17;14.02;67.71
72650;SHT31;61467;50.674;4.618;2024-02-16T01:43:44;14.02;67.64
72650;SHT31;61467;50.674;4.618;2024-02-16T01:46:11;13.89;67.93
72650;SHT31;61467;50.674;4.618;2024-02-16T01:48:37;13.85;68.19
72650;SHT31;61467;50.674;4.618;2024-02-16T01:51:06;13.92;68.20
72650;SHT31;61467;50.674;4.618;2024-02-16T01:53:34;13.92;68.07
72650;SHT31;61467;50.674;4.618;2024-02-16T01:56:02;14.13;67.64
72650;SHT31;61467;50.674;4.618;2024-02-16T01:58:31;14.03;67.60
72650;SHT31;61467;50.674;4.618;2024-02-16T02:00:57;14.08;67.51
72650;SHT31;61467;50.674;4.618;2024-02-16T02:03:24;13.99;67.78
72650;SHT31;61467;50.674;4.618;2024-02-16T02:05:51;14.03;67.96
72650;SHT31;61467;50.674;4.618;2024-02-16T02:08:20;13.92;68.31
72650;SHT31;61467;50.674;4.618;2024-02-16T02:10:46;14.10;67.55
72650;SHT31;61467;50.674;4.618;2024-02-16T02:13:14;13.98;68.09
72650;SHT31;61467;50.674;4.618;2024-02-16T02:15:42;13.93;68.28
72650;SHT31;61467;50.674;4.618;2024-02-16T02:18:09;14.05;68.11
72650;SHT31;61467;50.674;4.618;2024-02-16T02:20:36;14.16;67.74
72650;SHT31;61467;50.674;4.618;2024-02-16T02:23:04;14.09;68.04
72650;SHT31;61467;50.674;4.618;2024-02-16T02:25:31;13.96;68.34
72650;SHT31;61467;50.674;4.618;2024-02-16T02:27:58;14.08;68.17
72650;SHT31;61467;50.674;4.618;2024-02-16T02:30:24;14.23;67.69
72650;SHT31;61467;50.674;4.618;2024-02-16T02:32:51;14.17;67.88
72650;SHT31;61467;50.674;4.618;2024-02-16T02:35:18;14.12;67.97
72650;SHT31;61467;50.674;4.618;2024-02-16T02:37:46;14.06;68.23
72650;SHT31;61467;50.674;4.618;2024-02-16T02:40:15;14.19;68.11
72650;SHT31;61467;50.674;4.618;2024-02-16T02:42:42;14.14;68.04
72650;SHT31;61467;50.674;4.618;2024-02-16T02:45:09;14.09;68.62
72650;SHT31;61467;50.674;4.618;2024-02-16T02:47:36;14.01;68.80
72650;SHT31;61467;50.674;4.618;2024-02-16T02:50:04;14.03;68.50
72650;SHT31;61467;50.674;4.618;2024-02-16T02:52:31;14.03;68.68
72650;SHT31;61467;50.674;4.618;2024-02-16T02:54:58;14.06;68.67
72650;SHT31;61467;50.674;4.618;2024-02-16T02:57:26;13.98;69.13
72650;SHT31;61467;50.674;4.618;2024-02-16T02:59:53;14.01;69.28
72650;SHT31;61467;50.674;4.618;2024-02-16T03:02:29;13.96;68.92
72650;SHT31;61467;50.674;4.618;2024-02-16T03:04:56;14.20;68.67
72650;SHT31;61467;50.674;4.618;2024-02-16T03:07:25;14.14;68.65
72650;SHT31;61467;50.674;4.618;2024-02-16T03:09:52;14.09;68.97
72650;SHT31;61467;50.674;4.618;2024-02-16T03:12:19;14.24;68.65
72650;SHT31;61467;50.674;4.618;2024-02-16T03:14:48;14.26;68.62
72650;SHT31;61467;50.674;4.618;2024-02-16T03:17:15;14.13;68.84
72650;SHT31;61467;50.674;4.618;2024-02-16T03:19:42;14.19;68.72
72650;SHT31;61467;50.674;4.618;2024-02-16T03:22:08;14.16;68.81
72650;SHT31;61467;50.674;4.618;2024-02-16T03:24:35;14.13;68.91
72650;SHT31;61467;50.674;4.618;2024-02-16T03:27:02;14.20;69.03
72650;SHT31;61467;50.674;4.618;2024-02-16T03:29:29;14.19;68.91
72650;SHT31;61467;50.674;4.618;2024-02-16T03:31:57;14.13;69.15
72650;SHT31;61467;50.674;4.618;2024-02-16T03:34:24;14.16;69.30
72650;SHT31;61467;50.674;4.618;2024-02-16T03:36:51;14.20;69.21
72650;SHT31;61467;50.674;4.618;2024-02-16T03:39:18;14.14;69.26
72650;SHT31;61467;50.674;4.618;2024-02-16T03:41:46;14.16;69.39
72650;SHT31;61467;50.674;4.618;2024-02-16T03:44:14;14.14;69.46
72650;SHT31;61467;50.674;4.618;2024-02-16T03:46:41;14.12;69.43
72650;SHT31;61467;50.674;4.618;2024-02-16T03:49:10;14.13;69.38
72650;SHT31;61467;50.674;4.618;2024-02-16T03:51:36;14.20;69.28
72650;SHT31;61467;50.674;4.618;2024-02-16T03:54:03;14.20;69.43
72650;SHT31;61467;50.674;4.618;2024-02-16T03:56:31;14.29;69.28
72650;SHT31;61467;50.674;4.618;2024-02-16T03:58:57;14.17;69.39
72650;SHT31;61467;50.674;4.618;2024-02-16T04:01:27;14.33;69.05
72650;SHT31;61467;50.674;4.618;2024-02-16T04:03:53;14.26;69.38
72650;SHT31;61467;50.674;4.618;2024-02-16T04:06:21;14.22;69.57
72650;SHT31;61467;50.674;4.618;2024-02-16T04:08:48;14.14;69.91
72650;SHT31;61467;50.674;4.618;2024-02-16T04:11:15;14.20;69.69
72650;SHT31;61467;50.674;4.618;2024-02-16T04:13:42;14.20;69.61
72650;SHT31;61467;50.674;4.618;2024-02-16T04:16:09;14.14;70.00
72650;SHT31;61467;50.674;4.618;2024-02-16T04:18:36;14.16;69.82
72650;SHT31;61467;50.674;4.618;2024-02-16T04:21:03;14.27;69.74
72650;SHT31;61467;50.674;4.618;2024-02-16T04:23:32;14.06;70.62
72650;SHT31;61467;50.674;4.618;2024-02-16T04:25:58;14.22;70.14
72650;SHT31;61467;50.674;4.618;2024-02-16T04:28:25;14.22;69.89
72650;SHT31;61467;50.674;4.618;2024-02-16T04:30:54;14.29;70.01
72650;SHT31;61467;50.674;4.618;2024-02-16T04:33:21;14.09;70.25
72650;SHT31;61467;50.674;4.618;2024-02-16T04:35:48;14.22;70.34
72650;SHT31;61467;50.674;4.618;2024-02-16T04:38:16;14.24;70.29
72650;SHT31;61467;50.674;4.618;2024-02-16T04:40:45;14.12;70.61
72650;SHT31;61467;50.674;4.618;2024-02-16T04:43:12;14.27;70.25
72650;SHT31;61467;50.674;4.618;2024-02-16T04:45:39;14.29;70.31
72650;SHT31;61467;50.674;4.618;2024-02-16T04:48:06;14.40;69.98
72650;SHT31;61467;50.674;4.618;2024-02-16T04:50:34;14.19;70.73
72650;SHT31;61467;50.674;4.618;2024-02-16T04:53:01;14.17;70.86
72650;SHT31;61467;50.674;4.618;2024-02-16T04:55:28;14.22;70.71
72650;SHT31;61467;50.674;4.618;2024-02-16T04:57:57;14.22;70.81
72650;SHT31;61467;50.674;4.618;2024-02-16T05:00:25;14.10;71.26
72650;SHT31;61467;50.674;4.618;2024-02-16T05:02:52;13.99;71.49
72650;SHT31;61467;50.674;4.618;2024-02-16T05:05:19;13.92;71.81
72650;SHT31;61467;50.674;4.618;2024-02-16T05:07:48;13.95;71.90
72650;SHT31;61467;50.674;4.618;2024-02-16T05:10:15;14.06;71.76
72650;SHT31;61467;50.674;4.618;2024-02-16T05:12:42;13.99;71.91
72650;SHT31;61467;50.674;4.618;2024-02-16T05:15:10;14.06;71.73
72650;SHT31;61467;50.674;4.618;2024-02-16T05:17:38;14.06;71.99
72650;SHT31;61467;50.674;4.618;2024-02-16T05:20:10;14.09;71.65
72650;SHT31;61467;50.674;4.618;2024-02-16T05:22:41;14.17;71.59
72650;SHT31;61467;50.674;4.618;2024-02-16T05:25:09;13.98;72.16
72650;SHT31;61467;50.674;4.618;2024-02-16T05:27:36;14.03;72.21
72650;SHT31;61467;50.674;4.618;2024-02-16T05:30:05;14.22;71.73
72650;SHT31;61467;50.674;4.618;2024-02-16T05:32:35;14.09;71.90
72650;SHT31;61467;50.674;4.618;2024-02-16T05:35:03;14.13;72.37
72650;SHT31;61467;50.674;4.618;2024-02-16T05:37:37;14.19;71.83
72650;SHT31;61467;50.674;4.618;2024-02-16T05:40:07;14.16;72.07
72650;SHT31;61467;50.674;4.618;2024-02-16T05:42:45;14.03;72.44
72650;SHT31;61467;50.674;4.618;2024-02-16T05:45:13;14.12;72.09
72650;SHT31;61467;50.674;4.618;2024-02-16T05:47:44;14.16;72.22
72650;SHT31;61467;50.674;4.618;2024-02-16T05:50:12;14.26;72.10
72650;SHT31;61467;50.674;4.618;2024-02-16T05:52:39;14.20;72.29
72650;SHT31;61467;50.674;4.618;2024-02-16T05:55:07;14.12;72.75
72650;SHT31;61467;50.674;4.618;2024-02-16T05:57:34;14.03;73.13
72650;SHT31;61467;50.674;4.618;2024-02-16T06:00:01;14.05;73.13
72650;SHT31;61467;50.674;4.618;2024-02-16T06:02:30;14.17;72.72
72650;SHT31;61467;50.674;4.618;2024-02-16T06:04:58;14.12;72.54
72650;SHT31;61467;50.674;4.618;2024-02-16T06:07:25;14.08;73.09
72650;SHT31;61467;50.674;4.618;2024-02-16T06:09:52;14.17;72.91
72650;SHT31;61467;50.674;4.618;2024-02-16T06:12:20;14.22;72.41
72650;SHT31;61467;50.674;4.618;2024-02-16T06:14:48;14.10;73.17
72650;SHT31;61467;50.674;4.618;2024-02-16T06:17:15;14.06;73.02
72650;SHT31;61467;50.674;4.618;2024-02-16T06:19:42;14.03;73.35
72650;SHT31;61467;50.674;4.618;2024-02-16T06:22:10;14.17;73.05
72650;SHT31;61467;50.674;4.618;2024-02-16T06:24:37;14.16;73.06
72650;SHT31;61467;50.674;4.618;2024-02-16T06:27:04;14.29;72.70
72650;SHT31;61467;50.674;4.618;2024-02-16T06:29:31;14.24;72.71
72650;SHT31;61467;50.674;4.618;2024-02-16T06:31:57;14.20;72.92
72650;SHT31;61467;50.674;4.618;2024-02-16T06:34:24;14.23;72.86
72650;SHT31;61467;50.674;4.618;2024-02-16T06:36:51;14.33;72.58
72650;SHT31;61467;50.674;4.618;2024-02-16T06:39:19;14.29;72.61
72650;SHT31;61467;50.674;4.618;2024-02-16T06:41:46;14.32;72.70
72650;SHT31;61467;50.674;4.618;2024-02-16T06:44:14;14.27;72.81
72650;SHT31;61467;50.674;4.618;2024-02-16T06:46:43;14.30;72.87
72650;SHT31;61467;50.674;4.618;2024-02-16T06:49:10;14.37;72.40
72650;SHT31;61467;50.674;4.618;2024-02-16T06:51:37;14.19;73.44
72650;SHT31;61467;50.674;4.618;2024-02-16T06:54:05;14.23;73.37
72650;SHT31;61467;50.674;4.618;2024-02-16T06:56:34;14.26;73.32
72650;SHT31;61467;50.674;4.618;2024-02-16T06:59:01;14.27;73.39
72650;SHT31;61467;50.674;4.618;2024-02-16T07:01:29;14.27;73.32
72650;SHT31;61467;50.674;4.618;2024-02-16T07:03:56;14.24;73.66
72650;SHT31;61467;50.674;4.618;2024-02-16T07:06:23;14.24;73.61
72650;SHT31;61467;50.674;4.618;2024-02-16T07:08:49;14.33;73.32
72650;SHT31;61467;50.674;4.618;2024-02-16T07:11:17;14.24;73.75
72650;SHT31;61467;50.674;4.618;2024-02-16T07:13:45;14.23;73.70
72650;SHT31;61467;50.674;4.618;2024-02-16T07:16:12;14.06;74.36
72650;SHT31;61467;50.674;4.618;2024-02-16T07:18:39;14.08;74.32
72650;SHT31;61467;50.674;4.618;2024-02-16T07:21:07;14.17;74.28
72650;SHT31;61467;50.674;4.618;2024-02-16T07:23:34;14.13;74.53
72650;SHT31;61467;50.674;4.618;2024-02-16T07:26:01;14.16;74.20
72650;SHT31;61467;50.674;4.618;2024-02-16T07:28:28;14.19;74.28
72650;SHT31;61467;50.674;4.618;2024-02-16T07:30:57;14.10;74.47
72650;SHT31;61467;50.674;4.618;2024-02-16T07:33:24;14.03;74.76
72650;SHT31;61467;50.674;4.618;2024-02-16T07:35:53;14.14;74.39
72650;SHT31;61467;50.674;4.618;2024-02-16T07:38:20;14.03;74.85
72650;SHT31;61467;50.674;4.618;2024-02-16T07:40:47;14.03;74.79
72650;SHT31;61467;50.674;4.618;2024-02-16T07:43:16;14.05;74.80
72650;SHT31;61467;50.674;4.618;2024-02-16T07:45:42;14.09;74.86
72650;SHT31;61467;50.674;4.618;2024-02-16T07:48:10;14.17;74.73
72650;SHT31;61467;50.674;4.618;2024-02-16T07:50:37;14.33;74.35
72650;SHT31;61467;50.674;4.618;2024-02-16T07:53:04;14.26;74.58
72650;SHT31;61467;50.674;4.618;2024-02-16T07:55:31;14.13;75.00
72650;SHT31;61467;50.674;4.618;2024-02-16T07:57:58;14.13;75.38
72650;SHT31;61467;50.674;4.618;2024-02-16T08:00:33;14.16;74.99
72650;SHT31;61467;50.674;4.618;2024-02-16T08:03:00;14.17;75.00
72650;SHT31;61467;50.674;4.618;2024-02-16T08:05:29;14.27;74.72
72650;SHT31;61467;50.674;4.618;2024-02-16T08:07:56;14.29;74.65
72650;SHT31;61467;50.674;4.618;2024-02-16T08:10:26;14.19;75.04
72650;SHT31;61467;50.674;4.618;2024-02-16T08:12:53;14.08;75.42
72650;SHT31;61467;50.674;4.618;2024-02-16T08:15:20;14.09;75.23
72650;SHT31;61467;50.674;4.618;2024-02-16T08:17:50;14.24;75.06
72650;SHT31;61467;50.674;4.618;2024-02-16T08:20:17;14.08;75.67
72650;SHT31;61467;50.674;4.618;2024-02-16T08:22:45;14.16;75.43
72650;SHT31;61467;50.674;4.618;2024-02-16T08:25:12;14.20;75.44
72650;SHT31;61467;50.674;4.618;2024-02-16T08:27:39;14.19;76.12
72650;SHT31;61467;50.674;4.618;2024-02-16T08:30:07;14.23;76.04
72650;SHT31;61467;50.674;4.618;2024-02-16T08:32:35;14.01;76.66
72650;SHT31;61467;50.674;4.618;2024-02-16T08:35:02;14.10;76.61
72650;SHT31;61467;50.674;4.618;2024-02-16T08:37:30;14.22;76.39
72650;SHT31;61467;50.674;4.618;2024-02-16T08:39:58;14.20;76.12
72650;SHT31;61467;50.674;4.618;2024-02-16T08:42:25;14.36;76.22
72650;SHT31;61467;50.674;4.618;2024-02-16T08:44:51;14.20;76.42
72650;SHT31;61467;50.674;4.618;2024-02-16T08:47:18;14.33;76.22
72650;SHT31;61467;50.674;4.618;2024-02-16T08:49:45;14.19;76.43
72650;SHT31;61467;50.674;4.618;2024-02-16T08:52:12;14.27;76.64
72650;SHT31;61467;50.674;4.618;2024-02-16T08:54:39;14.26;76.31
72650;SHT31;61467;50.674;4.618;2024-02-16T08:57:08;14.33;76.31
72650;SHT31;61467;50.674;4.618;2024-02-16T08:59:36;14.38;76.09
72650;SHT31;61467;50.674;4.618;2024-02-16T09:02:03;14.44;76.61
72650;SHT31;61467;50.674;4.618;2024-02-16T09:04:29;14.36;77.01
72650;SHT31;61467;50.674;4.618;2024-02-16T09:06:57;14.27;77.54
72650;SHT31;61467;50.674;4.618;2024-02-16T09:09:23;14.38;77.58
72650;SHT31;61467;50.674;4.618;2024-02-16T09:11:51;14.26;78.44
72650;SHT31;61467;50.674;4.618;2024-02-16T09:14:19;14.36;78.05
72650;SHT31;61467;50.674;4.618;2024-02-16T09:16:48;14.24;78.66
72650;SHT31;61467;50.674;4.618;2024-02-16T09:19:16;14.12;79.26
72650;SHT31;61467;50.674;4.618;2024-02-16T09:21:43;14.02;79.54
72650;SHT31;61467;50.674;4.618;2024-02-16T09:24:10;13.99;79.82
72650;SHT31;61467;50.674;4.618;2024-02-16T09:26:42;14.03;79.43
72650;SHT31;61467;50.674;4.618;2024-02-16T09:29:12;14.03;79.93
72650;SHT31;61467;50.674;4.618;2024-02-16T09:31:41;13.98;80.01
72650;SHT31;61467;50.674;4.618;2024-02-16T09:34:08;14.19;79.60
72650;SHT31;61467;50.674;4.618;2024-02-16T09:36:36;14.13;79.49
72650;SHT31;61467;50.674;4.618;2024-02-16T09:39:03;14.05;79.78
72650;SHT31;61467;50.674;4.618;2024-02-16T09:41:34;14.10;79.55
72650;SHT31;61467;50.674;4.618;2024-02-16T09:44:02;14.06;79.57
72650;SHT31;61467;50.674;4.618;2024-02-16T09:46:29;14.08;79.86
72650;SHT31;61467;50.674;4.618;2024-02-16T09:48:59;14.13;79.60
72650;SHT31;61467;50.674;4.618;2024-02-16T09:51:30;14.20;79.23
72650;SHT31;61467;50.674;4.618;2024-02-16T09:53:57;14.20;79.53
72650;SHT31;61467;50.674;4.618;2024-02-16T09:56:25;14.14;79.57
72650;SHT31;61467;50.674;4.618;2024-02-16T09:58:53;14.12;79.95
72650;SHT31;61467;50.674;4.618;2024-02-16T10:01:21;14.13;79.68
72650;SHT31;61467;50.674;4.618;2024-02-16T10:03:48;14.16;79.68
72650;SHT31;61467;50.674;4.618;2024-02-16T10:06:17;14.34;79.28
72650;SHT31;61467;50.674;4.618;2024-02-16T10:08:48;14.37;79.31
72650;SHT31;61467;50.674;4.618;2024-02-16T10:11:16;14.33;79.38
72650;SHT31;61467;50.674;4.618;2024-02-16T10:13:54;14.27;79.84
72650;SHT31;61467;50.674;4.618;2024-02-16T10:16:21;14.13;80.11
72650;SHT31;61467;50.674;4.618;2024-02-16T10:18:48;14.19;80.23
72650;SHT31;61467;50.674;4.618;2024-02-16T10:21:25;14.23;79.95
72650;SHT31;61467;50.674;4.618;2024-02-16T10:23:57;14.36;79.29
72650;SHT31;61467;50.674;4.618;2024-02-16T10:26:27;14.27;79.50
72650;SHT31;61467;50.674;4.618;2024-02-16T10:28:56;14.44;79.40
72650;SHT31;61467;50.674;4.618;2024-02-16T10:31:24;14.10;80.14
72650;SHT31;61467;50.674;4.618;2024-02-16T10:33:57;14.08;80.48
72650;SHT31;61467;50.674;4.618;2024-02-16T10:36:26;13.99;81.02
72650;SHT31;61467;50.674;4.618;2024-02-16T10:38:55;13.99;80.97
72650;SHT31;61467;50.674;4.618;2024-02-16T10:41:26;14.09;80.83
72650;SHT31;61467;50.674;4.618;2024-02-16T10:43:54;14.01;80.84
72650;SHT31;61467;50.674;4.618;2024-02-16T10:46:22;14.29;80.18
72650;SHT31;61467;50.674;4.618;2024-02-16T10:48:50;14.03;80.61
72650;SHT31;61467;50.674;4.618;2024-02-16T10:51:21;13.98;80.97
72650;SHT31;61467;50.674;4.618;2024-02-16T10:53:54;14.14;80.51
72650;SHT31;61467;50.674;4.618;2024-02-16T10:56:32;14.08;80.90
72650;SHT31;61467;50.674;4.618;2024-02-16T10:59:04;14.13;80.41
72650;SHT31;61467;50.674;4.618;2024-02-16T11:01:37;14.19;80.25
72650;SHT31;61467;50.674;4.618;2024-02-16T11:04:05;14.20;80.54
72650;SHT31;61467;50.674;4.618;2024-02-16T11:06:53;14.37;80.17
72650;SHT31;61467;50.674;4.618;2024-02-16T11:09:30;14.26;80.16
72650;SHT31;61467;50.674;4.618;2024-02-16T11:12:01;14.37;80.18
72650;SHT31;61467;50.674;4.618;2024-02-16T11:14:35;14.33;80.11
72650;SHT31;61467;50.674;4.618;2024-02-16T11:17:07;14.26;79.96
72650;SHT31;61467;50.674;4.618;2024-02-16T11:19:36;14.17;80.55
72650;SHT31;61467;50.674;4.618;2024-02-16T11:22:04;14.24;80.41
72650;SHT31;61467;50.674;4.618;2024-02-16T11:24:35;14.32;80.23
72650;SHT31;61467;50.674;4.618;2024-02-16T11:27:02;14.17;80.29
72650;SHT31;61467;50.674;4.618;2024-02-16T11:29:32;14.08;80.84
72650;SHT31;61467;50.674;4.618;2024-02-16T11:32:00;14.01;80.99
72650;SHT31;61467;50.674;4.618;2024-02-16T11:34:29;14.34;80.32
72650;SHT31;61467;50.674;4.618;2024-02-16T11:36:57;14.27;80.46
72650;SHT31;61467;50.674;4.618;2024-02-16T11:39:24;14.37;80.60
72650;SHT31;61467;50.674;4.618;2024-02-16T11:42:03;14.43;81.19
72650;SHT31;61467;50.674;4.618;2024-02-16T11:44:31;14.13;82.87
72650;SHT31;61467;50.674;4.618;2024-02-16T11:46:59;14.03;83.32
72650;SHT31;61467;50.674;4.618;2024-02-16T11:49:28;14.09;83.63
72650;SHT31;61467;50.674;4.618;2024-02-16T11:51:56;14.14;83.42
72650;SHT31;61467;50.674;4.618;2024-02-16T11:54:24;14.05;84.22
72650;SHT31;61467;50.674;4.618;2024-02-16T11:56:52;13.90;84.81
72650;SHT31;61467;50.674;4.618;2024-02-16T11:59:25;13.99;84.89
72650;SHT31;61467;50.674;4.618;2024-02-16T12:01:57;14.03;84.76
72650;SHT31;61467;50.674;4.618;2024-02-16T12:04:30;13.92;85.02
72650;SHT31;61467;50.674;4.618;2024-02-16T12:06:58;13.76;85.56
72650;SHT31;61467;50.674;4.618;2024-02-16T12:09:28;13.66;86.33
72650;SHT31;61467;50.674;4.618;2024-02-16T12:11:57;13.69;86.17
72650;SHT31;61467;50.674;4.618;2024-02-16T12:14:25;13.71;86.44
72650;SHT31;61467;50.674;4.618;2024-02-16T12:16:57;13.82;86.49
72650;SHT31;61467;50.674;4.618;2024-02-16T12:19:25;13.85;86.53
72650;SHT31;61467;50.674;4.618;2024-02-16T12:21:52;13.87;86.15
72650;SHT31;61467;50.674;4.618;2024-02-16T12:24:20;13.99;85.45
72650;SHT31;61467;50.674;4.618;2024-02-16T12:26:47;13.99;85.38
72650;SHT31;61467;50.674;4.618;2024-02-16T12:29:14;13.95;85.79
72650;SHT31;61467;50.674;4.618;2024-02-16T12:31:44;14.08;85.37
72650;SHT31;61467;50.674;4.618;2024-02-16T12:34:11;13.86;85.82
72650;SHT31;61467;50.674;4.618;2024-02-16T12:36:39;13.78;86.21
72650;SHT31;61467;50.674;4.618;2024-02-16T12:39:06;13.85;86.21
72650;SHT31;61467;50.674;4.618;2024-02-16T12:41:37;13.64;87.04
72650;SHT31;61467;50.674;4.618;2024-02-16T12:44:05;13.78;86.47
72650;SHT31;61467;50.674;4.618;2024-02-16T12:46:39;13.81;86.09
72650;SHT31;61467;50.674;4.618;2024-02-16T12:49:09;13.64;86.15
72650;SHT31;61467;50.674;4.618;2024-02-16T12:51:36;13.66;86.10
72650;SHT31;61467;50.674;4.618;2024-02-16T12:54:03;13.38;86.61
72650;SHT31;61467;50.674;4.618;2024-02-16T12:56:30;13.50;86.47
72650;SHT31;61467;50.674;4.618;2024-02-16T12:58:59;13.50;86.77
72650;SHT31;61467;50.674;4.618;2024-02-16T13:01:33;13.62;86.13
72650;SHT31;61467;50.674;4.618;2024-02-16T13:04:02;13.59;86.43
72650;SHT31;61467;50.674;4.618;2024-02-16T13:06:35;13.35;86.76
72650;SHT31;61467;50.674;4.618;2024-02-16T13:09:12;13.31;87.12
72650;SHT31;61467;50.674;4.618;2024-02-16T13:11:45;13.55;86.42
72650;SHT31;61467;50.674;4.618;2024-02-16T13:14:19;13.30;86.32
72650;SHT31;61467;50.674;4.618;2024-02-16T13:16:46;13.15;86.81
72650;SHT31;61467;50.674;4.618;2024-02-16T13:19:13;13.38;86.10
72650;SHT31;61467;50.674;4.618;2024-02-16T13:21:43;13.28;87.05
72650;SHT31;61467;50.674;4.618;2024-02-16T13:24:10;13.25;86.64
72650;SHT31;61467;50.674;4.618;2024-02-16T13:26:37;13.33;86.38
72650;SHT31;61467;50.674;4.618;2024-02-16T13:29:04;13.48;86.19
72650;SHT31;61467;50.674;4.618;2024-02-16T13:31:30;13.23;86.39
72650;SHT31;61467;50.674;4.618;2024-02-16T13:33:59;13.08;87.38
72650;SHT31;61467;50.674;4.618;2024-02-16T13:36:26;13.21;87.12
72650;SHT31;61467;50.674;4.618;2024-02-16T13:38:54;13.00;86.57
72650;SHT31;61467;50.674;4.618;2024-02-16T13:41:21;12.99;86.72
72650;SHT31;61467;50.674;4.618;2024-02-16T13:43:48;12.92;87.01
72650;SHT31;61467;50.674;4.618;2024-02-16T13:46:15;13.11;86.25
72650;SHT31;61467;50.674;4.618;2024-02-16T13:48:41;13.07;86.41
72650;SHT31;61467;50.674;4.618;2024-02-16T13:51:08;13.00;86.51
72650;SHT31;61467;50.674;4.618;2024-02-16T13:53:35;13.23;85.83
72650;SHT31;61467;50.674;4.618;2024-02-16T13:56:04;13.15;85.79
72650;SHT31;61467;50.674;4.618;2024-02-16T13:58:31;13.14;85.89
72650;SHT31;61467;50.674;4.618;2024-02-16T14:01:00;13.10;86.02
72650;SHT31;61467;50.674;4.618;2024-02-16T14:03:28;12.97;86.45
72650;SHT31;61467;50.674;4.618;2024-02-16T14:05:55;13.02;86.73
72650;SHT31;61467;50.674;4.618;2024-02-16T14:08:23;13.18;86.23
72650;SHT31;61467;50.674;4.618;2024-02-16T14:10:49;13.15;86.16
72650;SHT31;61467;50.674;4.618;2024-02-16T14:13:18;13.38;85.91
72650;SHT31;61467;50.674;4.618;2024-02-16T14:15:45;13.34;85.94
72650;SHT31;61467;50.674;4.618;2024-02-16T14:18:12;13.44;85.26
72650;SHT31;61467;50.674;4.618;2024-02-16T14:20:38;13.45;85.32
72650;SHT31;61467;50.674;4.618;2024-02-16T14:23:06;13.20;85.52
72650;SHT31;61467;50.674;4.618;2024-02-16T14:25:34;13.35;85.29
72650;SHT31;61467;50.674;4.618;2024-02-16T14:28:03;13.54;84.51
72650;SHT31;61467;50.674;4.618;2024-02-16T14:30:31;13.59;84.50
72650;SHT31;61467;50.674;4.618;2024-02-16T14:32:58;13.72;84.25
72650;SHT31;61467;50.674;4.618;2024-02-16T14:35:25;13.71;83.54
72650;SHT31;61467;50.674;4.618;2024-02-16T14:37:52;13.62;83.66
72650;SHT31;61467;50.674;4.618;2024-02-16T14:40:19;13.38;84.55
72650;SHT31;61467;50.674;4.618;2024-02-16T14:42:45;13.45;84.56
72650;SHT31;61467;50.674;4.618;2024-02-16T14:45:12;13.51;84.89
72650;SHT31;61467;50.674;4.618;2024-02-16T14:47:47;13.65;84.28
72650;SHT31;61467;50.674;4.618;2024-02-16T14:50:15;13.50;84.22
72650;SHT31;61467;50.674;4.618;2024-02-16T14:52:42;13.54;84.28
72650;SHT31;61467;50.674;4.618;2024-02-16T14:55:17;13.45;84.25
72650;SHT31;61467;50.674;4.618;2024-02-16T14:57:48;13.55;83.87
72650;SHT31;61467;50.674;4.618;2024-02-16T15:00:15;13.57;83.75
72650;SHT31;61467;50.674;4.618;2024-02-16T15:02:42;13.47;84.18
72650;SHT31;61467;50.674;4.618;2024-02-16T15:05:10;13.51;83.86
72650;SHT31;61467;50.674;4.618;2024-02-16T15:07:38;13.54;83.52
72650;SHT31;61467;50.674;4.618;2024-02-16T15:10:05;13.55;83.65
72650;SHT31;61467;50.674;4.618;2024-02-16T15:12:32;13.52;83.48
72650;SHT31;61467;50.674;4.618;2024-02-16T15:14:59;13.66;83.24
72650;SHT31;61467;50.674;4.618;2024-02-16T15:17:26;13.65;82.90
72650;SHT31;61467;50.674;4.618;2024-02-16T15:19:53;13.71;83.04
72650;SHT31;61467;50.674;4.618;2024-02-16T15:22:27;13.82;82.53
72650;SHT31;61467;50.674;4.618;2024-02-16T15:24:55;13.83;82.34
72650;SHT31;61467;50.674;4.618;2024-02-16T15:27:22;13.71;82.77
72650;SHT31;61467;50.674;4.618;2024-02-16T15:29:52;13.64;82.54
72650;SHT31;61467;50.674;4.618;2024-02-16T15:32:19;13.65;82.56
72650;SHT31;61467;50.674;4.618;2024-02-16T15:34:46;13.82;81.73